»·PEaware :: N77CE KVNY-KHND

N77CE :: KVNY-KHND

FLIGHT INFORMATION

Flight Status: Arrived
Operator: Privately registered:
United States
More flights under this callsign
Pilot: Joshua G. (28340)
Aircraft: BEECH AIRCRAFT A90-E90 KING AIR
(BE9L)
More flights by this aircraft type
Origin: KVNY Van Nuys
United States
Destination: KHND Henderson
United States
More flights between these airports :: More routes between these airports
Route: +NUAL9 DAG V587 BLD
File this flight plan on PilotEdge
Remarks:
Altitude:
(Current/Filed)
21,000ft
Speed:
(Current/Filed)
220kts
Departed: 07-Aug-20 06:40 PM
Arrived: 07-Aug-20 07:43 PM
Distance/Time
Traveled:
196nm/1:03
Distance/Time
To Go:
Arrived

Flight Plot

Page will automatically refresh every two minutes.

Flight plan parsing failed; only flown route is shown


Map Options




Map Legend


Flown Route
Filed Route
Departure Airport
Arrival Airport
Navaid (VOR, NDB)
Fix

Horizontal Profiles

Position Reports

Time Latitude Longitude Heading Altitude Ground
Speed
07-Aug-20 18:04 34.216142 -118.484634 187 806ft 0kts
07-Aug-20 18:05 34.216142 -118.484634 187 806ft 0kts
07-Aug-20 18:06 34.216142 -118.484634 187 806ft 0kts
07-Aug-20 18:07 34.216142 -118.484634 187 806ft 0kts
07-Aug-20 18:08 34.216142 -118.484634 187 806ft 0kts
07-Aug-20 18:09 34.216142 -118.484634 187 806ft 0kts
07-Aug-20 18:10 34.216142 -118.484634 187 806ft 0kts
07-Aug-20 18:11 34.216142 -118.484634 187 806ft 0kts
07-Aug-20 18:12 34.216142 -118.484634 187 806ft 0kts
07-Aug-20 18:13 34.216142 -118.484634 187 806ft 0kts
07-Aug-20 18:14 34.216142 -118.484634 187 806ft 0kts
07-Aug-20 18:15 34.216142 -118.484634 187 806ft 0kts
07-Aug-20 18:16 34.216142 -118.484634 187 806ft 0kts
07-Aug-20 18:17 34.216142 -118.484634 187 806ft 0kts
07-Aug-20 18:18 34.216142 -118.484634 187 806ft 0kts
07-Aug-20 18:19 34.216142 -118.484634 187 806ft 0kts
07-Aug-20 18:20 34.216142 -118.484634 187 806ft 0kts
07-Aug-20 18:21 34.216142 -118.484634 187 806ft 0kts
07-Aug-20 18:22 34.216142 -118.484634 187 806ft 0kts
07-Aug-20 18:23 34.216142 -118.484634 187 806ft 0kts
07-Aug-20 18:24 34.216142 -118.484634 187 806ft 0kts
07-Aug-20 18:25 34.216142 -118.484634 187 806ft 0kts
07-Aug-20 18:26 34.216142 -118.484634 187 806ft 0kts
07-Aug-20 18:27 34.216142 -118.484634 187 806ft 0kts
07-Aug-20 18:28 34.216142 -118.484634 187 806ft 0kts
07-Aug-20 18:29 34.216142 -118.484634 187 806ft 0kts
07-Aug-20 18:30 34.216142 -118.484634 187 806ft 0kts
07-Aug-20 18:31 34.216142 -118.484634 187 806ft 0kts
07-Aug-20 18:32 34.216142 -118.484634 187 806ft 0kts
07-Aug-20 18:33 34.216142 -118.484634 187 806ft 0kts
07-Aug-20 18:34 34.215609 -118.485256 280 806ft 3kts
07-Aug-20 18:35 34.216031 -118.488385 279 806ft 16kts
07-Aug-20 18:36 34.218605 -118.489477 355 806ft 0kts
07-Aug-20 18:37 34.218607 -118.489477 354 806ft 0kts
07-Aug-20 18:38 34.218911 -118.490180 266 806ft 13kts
07-Aug-20 18:39 34.209263 -118.490302 173 856ft 114kts
07-Aug-20 18:40 34.175367 -118.476951 134 2337ft 149kts
07-Aug-20 18:41 34.162498 -118.432218 61 4059ft 158kts
07-Aug-20 18:42 34.205119 -118.427815 346 5602ft 161kts
07-Aug-20 18:43 34.249899 -118.435892 350 7124ft 165kts
07-Aug-20 18:44 34.295326 -118.443621 350 8523ft 167kts
07-Aug-20 18:45 34.341505 -118.452210 348 9824ft 169kts
07-Aug-20 18:46 34.387363 -118.451476 36 11009ft 174kts
07-Aug-20 18:47 34.417685 -118.405361 52 12091ft 177kts
07-Aug-20 18:48 34.447964 -118.357077 52 13056ft 182kts
07-Aug-20 18:49 34.477631 -118.309818 51 14306ft 167kts
07-Aug-20 18:50 34.506339 -118.264105 51 15273ft 173kts
07-Aug-20 18:51 34.535734 -118.217143 51 16179ft 177kts
07-Aug-20 18:52 34.565828 -118.168985 51 17018ft 181kts
07-Aug-20 18:53 34.596431 -118.119951 51 17795ft 184kts
07-Aug-20 18:54 34.627541 -118.069903 55 18517ft 188kts
07-Aug-20 18:55 34.637703 -118.007634 84 19188ft 190kts
07-Aug-20 18:56 34.644656 -117.943543 84 19816ft 193kts
07-Aug-20 18:57 34.651749 -117.878432 84 20402ft 196kts
07-Aug-20 18:58 34.658899 -117.812496 84 20945ft 198kts
07-Aug-20 18:59 34.669508 -117.742502 73 20988ft 222kts
07-Aug-20 19:00 34.688428 -117.668846 73 20997ft 233kts
07-Aug-20 19:01 34.707936 -117.592693 73 21011ft 237kts
07-Aug-20 19:02 34.727566 -117.515832 73 21012ft 239kts
07-Aug-20 19:03 34.747405 -117.437924 73 21012ft 240kts
07-Aug-20 19:04 34.767143 -117.360182 72 21021ft 240kts
07-Aug-20 19:05 34.786768 -117.282667 73 21007ft 239kts
07-Aug-20 19:06 34.806313 -117.205230 73 20989ft 239kts
07-Aug-20 19:07 34.825807 -117.127780 73 20963ft 239kts
07-Aug-20 19:08 34.845212 -117.050403 72 20943ft 239kts
07-Aug-20 19:09 34.864502 -116.973290 72 20931ft 237kts
07-Aug-20 19:10 34.883654 -116.896486 72 20927ft 235kts
07-Aug-20 19:11 34.902614 -116.820227 72 20927ft 234kts
07-Aug-20 19:12 34.921428 -116.744338 73 20928ft 234kts
07-Aug-20 19:13 34.940243 -116.668214 74 20929ft 234kts
07-Aug-20 19:14 34.958903 -116.592506 74 20931ft 233kts
07-Aug-20 19:15 34.987761 -116.521245 63 20938ft 234kts
07-Aug-20 19:16 35.019294 -116.450076 64 20477ft 250kts
07-Aug-20 19:17 35.053056 -116.373648 64 19607ft 260kts
07-Aug-20 19:18 35.087617 -116.295634 64 18725ft 261kts
07-Aug-20 19:19 35.122328 -116.217271 64 17820ft 261kts
07-Aug-20 19:20 35.156486 -116.139726 64 16914ft 259kts
07-Aug-20 19:21 35.190561 -116.062151 64 16005ft 258kts
07-Aug-20 19:22 35.224235 -115.985313 64 15102ft 256kts
07-Aug-20 19:23 35.257752 -115.908659 63 14198ft 255kts
07-Aug-20 19:24 35.291161 -115.832078 63 13295ft 254kts
07-Aug-20 19:25 35.330443 -115.760911 48 12390ft 255kts
07-Aug-20 19:26 35.378069 -115.697068 48 11514ft 253kts
07-Aug-20 19:27 35.425033 -115.634245 48 10810ft 248kts
07-Aug-20 19:28 35.471684 -115.571891 48 10106ft 248kts
07-Aug-20 19:29 35.516822 -115.511534 48 9989ft 232kts
07-Aug-20 19:30 35.559773 -115.453914 48 9990ft 227kts
07-Aug-20 19:31 35.602346 -115.396761 48 9990ft 226kts
07-Aug-20 19:32 35.644855 -115.339572 49 9991ft 226kts
07-Aug-20 19:34 35.687210 -115.282492 49 9991ft 226kts
07-Aug-20 19:35 35.729470 -115.225411 49 9991ft 226kts
07-Aug-20 19:36 35.772382 -115.167310 49 9597ft 235kts
07-Aug-20 19:37 35.824091 -115.120470 6 8080ft 249kts
07-Aug-20 19:38 35.893252 -115.118955 2 5941ft 250kts
07-Aug-20 19:39 35.957987 -115.112478 10 3909ft 209kts
07-Aug-20 19:40 36.004942 -115.105759 357 3414ft 152kts
07-Aug-20 19:41 36.010295 -115.136510 165 3129ft 116kts
07-Aug-20 19:42 35.977381 -115.135356 180 2419ft 109kts
07-Aug-20 19:43 35.972622 -115.136440 359 2433ft 8kts
07-Aug-20 19:44 35.977746 -115.136377 1 2411ft 17kts
07-Aug-20 19:45 35.977256 -115.137510 330 2411ft 3kts
07-Aug-20 19:46 35.977363 -115.137517 358 2411ft 0kts

Navigation Log

Ident Type
Flight plan parsing failed, navigation log unavailable